createdAt,value
2022-10-29T00:01:36.021Z,8.47
2022-10-29T00:03:35.926Z,8.43
2022-10-29T00:06:44.176Z,8.3
2022-10-29T00:08:43.736Z,8.28
2022-10-29T00:10:43.714Z,8.24
2022-10-29T00:12:43.822Z,8.22
2022-10-29T00:14:43.812Z,8.23
2022-10-29T00:16:43.729Z,8.23
2022-10-29T00:18:43.753Z,8.16
2022-10-29T00:21:49.639Z,8.18
2022-10-29T00:23:50.210Z,8.09
2022-10-29T00:25:49.768Z,8.05
2022-10-29T00:27:49.629Z,8.07
2022-10-29T00:29:49.905Z,8.04
2022-10-29T00:31:49.687Z,8.06
2022-10-29T00:33:49.643Z,8.04
2022-10-29T00:36:56.069Z,7.98
2022-10-29T00:38:56.048Z,7.93
2022-10-29T00:40:56.308Z,7.88
2022-10-29T00:42:56.086Z,7.82
2022-10-29T00:44:56.123Z,7.82
2022-10-29T00:46:56.105Z,7.84
2022-10-29T00:48:56.192Z,7.8
2022-10-29T00:50:56.058Z,7.78
2022-10-29T00:52:23.006Z,7.78
2022-10-29T00:54:23.011Z,7.75
2022-10-29T00:56:23.032Z,7.68
2022-10-29T00:58:23.005Z,7.7
2022-10-29T01:00:23.026Z,7.72
2022-10-29T01:02:23.169Z,7.7
2022-10-29T01:04:23.053Z,7.67
2022-10-29T01:07:14.827Z,7.64
2022-10-29T01:09:14.844Z,7.6
2022-10-29T01:11:14.818Z,7.57
2022-10-29T01:15:14.823Z,7.47
2022-10-29T01:17:16.878Z,7.51
2022-10-29T01:19:14.904Z,7.47
2022-10-29T01:21:14.851Z,7.47
2022-10-29T01:23:08.170Z,7.37
2022-10-29T01:25:08.156Z,7.41
2022-10-29T01:27:08.145Z,7.41
2022-10-29T01:29:08.493Z,7.37
2022-10-29T01:31:08.375Z,7.37
2022-10-29T01:33:08.312Z,7.3
2022-10-29T01:35:08.149Z,7.24
2022-10-29T01:37:34.501Z,7.24
2022-10-29T01:39:34.604Z,7.19
2022-10-29T01:41:34.547Z,7.18
2022-10-29T01:43:34.589Z,7.12
2022-10-29T01:45:34.475Z,7.14
2022-10-29T01:47:34.519Z,7.1
2022-10-29T01:49:34.512Z,6.97
2022-10-29T01:51:34.509Z,7.01
2022-10-29T01:52:42.325Z,7.01
2022-10-29T01:54:42.313Z,7.04
2022-10-29T01:56:42.295Z,6.98
2022-10-29T01:58:42.272Z,6.95
2022-10-29T02:00:42.322Z,6.91
2022-10-29T02:02:47.333Z,6.92
2022-10-29T02:04:42.289Z,6.94
2022-10-29T02:06:42.285Z,6.89
2022-10-29T02:08:04.472Z,6.83
2022-10-29T02:10:04.477Z,6.87
2022-10-29T02:12:04.466Z,6.85
2022-10-29T02:14:04.512Z,6.83
2022-10-29T02:16:04.609Z,6.77
2022-10-29T02:18:04.525Z,6.78
2022-10-29T02:20:04.762Z,6.8
2022-10-29T02:23:24.352Z,6.73
2022-10-29T02:25:24.407Z,6.76
2022-10-29T02:27:24.359Z,6.72
2022-10-29T02:29:24.353Z,6.7
2022-10-29T02:31:24.307Z,6.56
2022-10-29T02:33:24.302Z,6.65
2022-10-29T02:35:24.338Z,6.66
2022-10-29T02:38:55.065Z,6.62
2022-10-29T02:40:55.088Z,6.57
2022-10-29T02:42:55.422Z,6.52
2022-10-29T02:44:55.067Z,6.6
2022-10-29T02:46:55.068Z,6.54
2022-10-29T02:48:55.073Z,6.45
2022-10-29T02:50:55.090Z,6.44
2022-10-29T02:53:59.675Z,6.27
2022-10-29T02:55:59.429Z,6.27
2022-10-29T02:57:59.464Z,6.28
2022-10-29T02:59:59.452Z,6.27
2022-10-29T03:01:59.541Z,6.23
2022-10-29T03:03:59.494Z,6.24
2022-10-29T03:05:59.486Z,6.3
2022-10-29T03:09:14.787Z,6.19
2022-10-29T03:11:14.750Z,6.12
2022-10-29T03:13:14.815Z,6.18
2022-10-29T03:15:14.757Z,6.2
2022-10-29T03:17:14.790Z,6.25
2022-10-29T03:19:14.740Z,6.3
2022-10-29T03:21:14.802Z,6.27
2022-10-29T03:23:44.187Z,6.22
2022-10-29T03:25:44.137Z,6.18
2022-10-29T03:27:44.150Z,6.14
2022-10-29T03:29:44.166Z,6.05
2022-10-29T03:31:44.360Z,6.05
2022-10-29T03:33:44.211Z,6.02
2022-10-29T03:35:44.322Z,6.05
2022-10-29T03:37:44.328Z,5.89
2022-10-29T03:39:44.305Z,5.66
2022-10-29T03:41:44.341Z,5.72
2022-10-29T03:43:44.466Z,5.52
2022-10-29T03:45:44.421Z,5.66
2022-10-29T03:47:44.165Z,5.73
2022-10-29T03:49:44.171Z,5.8
2022-10-29T03:51:44.041Z,5.78
2022-10-29T03:54:18.216Z,5.49
2022-10-29T03:56:17.979Z,5.28
2022-10-29T03:58:18.000Z,5.33
2022-10-29T04:00:17.974Z,5.47
2022-10-29T04:02:18.011Z,5.52
2022-10-29T04:04:17.987Z,5.51
2022-10-29T04:06:17.979Z,5.51
2022-10-29T04:09:19.938Z,5.53
2022-10-29T04:11:19.800Z,5.55
2022-10-29T04:13:19.898Z,5.52
2022-10-29T04:15:19.741Z,5.41
2022-10-29T04:17:19.728Z,5.36
2022-10-29T04:19:19.719Z,5.23
2022-10-29T04:28:57.563Z,5.33
2022-10-29T04:30:57.579Z,5.37
2022-10-29T04:32:58.085Z,5.41
2022-10-29T04:34:57.550Z,5.34
2022-10-29T04:36:57.560Z,5.2
2022-10-29T04:39:51.519Z,5.31
2022-10-29T04:41:51.472Z,5.09
2022-10-29T04:43:51.496Z,5.09
2022-10-29T04:45:51.475Z,5.2
2022-10-29T04:47:51.458Z,5.23
2022-10-29T04:49:51.513Z,5.26
2022-10-29T04:51:51.611Z,5.3
2022-10-29T04:55:36.255Z,5.32
2022-10-29T04:57:36.244Z,5.31
2022-10-29T04:59:36.304Z,5.36
2022-10-29T05:03:36.238Z,5.4
2022-10-29T05:05:36.366Z,5.41
2022-10-29T05:07:36.250Z,5.42
2022-10-29T05:09:51.675Z,5.42
2022-10-29T05:11:51.660Z,5.43
2022-10-29T05:13:51.653Z,5.46
2022-10-29T05:15:53.153Z,5.42
2022-10-29T05:17:51.657Z,5.49
2022-10-29T05:19:51.893Z,5.51
2022-10-29T05:21:52.046Z,5.52
2022-10-29T05:23:51.647Z,5.56
2022-10-29T05:25:20.299Z,5.58
2022-10-29T05:27:19.917Z,5.66
2022-10-29T05:29:19.963Z,5.71
2022-10-29T05:31:19.945Z,5.69
2022-10-29T05:33:19.900Z,5.63
2022-10-29T05:35:20.014Z,5.66
2022-10-29T05:37:19.934Z,5.79
2022-10-29T05:40:29.638Z,5.9
2022-10-29T05:42:29.411Z,5.93
2022-10-29T05:44:29.329Z,5.8
2022-10-29T05:46:29.356Z,5.76
2022-10-29T05:48:29.276Z,5.66
2022-10-29T05:50:30.098Z,5.79
2022-10-29T05:52:29.941Z,5.65
2022-10-29T05:55:27.081Z,5.75
2022-10-29T05:57:26.506Z,5.68
2022-10-29T05:59:31.106Z,5.95
2022-10-29T06:01:26.772Z,5.93
2022-10-29T06:03:26.688Z,5.88
2022-10-29T06:05:26.807Z,6.1
2022-10-29T06:07:26.536Z,6.54
2022-10-29T06:09:26.589Z,6.6
2022-10-29T06:10:47.118Z,6.54
2022-10-29T06:12:50.002Z,6.86
2022-10-29T06:14:47.344Z,6.61
2022-10-29T06:16:47.108Z,6.63
2022-10-29T06:18:47.220Z,6.79
2022-10-29T06:20:47.639Z,7
2022-10-29T06:22:47.433Z,7.18
2022-10-29T06:26:07.575Z,7.17
2022-10-29T06:28:07.270Z,7.35
2022-10-29T06:30:08.305Z,7.23
2022-10-29T06:32:07.412Z,7.08
2022-10-29T06:34:07.637Z,6.73
2022-10-29T06:36:08.373Z,6.89
2022-10-29T06:38:09.236Z,6.6
2022-10-29T06:41:47.819Z,6.51
2022-10-29T06:43:47.788Z,6.67
2022-10-29T06:45:47.806Z,6.94
2022-10-29T06:47:47.771Z,7.07
2022-10-29T06:49:47.821Z,7.04
2022-10-29T06:51:47.793Z,6.91
2022-10-29T06:53:47.806Z,7.35
2022-10-29T06:56:37.922Z,7.45
2022-10-29T06:58:37.780Z,7.57
2022-10-29T07:00:37.843Z,7.73
2022-10-29T07:02:37.786Z,7.51
2022-10-29T07:04:37.735Z,7.32
2022-10-29T07:06:37.845Z,7.35
2022-10-29T07:08:37.799Z,7.16
2022-10-29T07:11:20.003Z,7.53
2022-10-29T07:13:19.958Z,7.82
2022-10-29T07:15:22.044Z,8.06
2022-10-29T07:17:19.974Z,8.15
2022-10-29T07:19:19.974Z,8.33
2022-10-29T07:21:19.983Z,8.86
2022-10-29T07:23:20.059Z,9.33
2022-10-29T07:25:19.964Z,9.29
2022-10-29T07:26:46.596Z,9.33
2022-10-29T07:28:46.590Z,9.27
2022-10-29T07:30:46.627Z,9.24
2022-10-29T07:32:46.618Z,9.62
2022-10-29T07:34:46.597Z,9.78
2022-10-29T07:36:46.715Z,10.24
2022-10-29T07:38:46.690Z,10.21
2022-10-29T07:42:20.967Z,10.49
2022-10-29T07:44:20.962Z,10.92
2022-10-29T07:46:20.941Z,11.1
2022-10-29T07:48:21.030Z,11.29
2022-10-29T07:50:20.954Z,11.08
2022-10-29T07:52:20.930Z,11.15
2022-10-29T07:54:21.014Z,11.21
2022-10-29T07:57:19.325Z,11.39
2022-10-29T07:59:19.376Z,11.89
2022-10-29T08:01:19.477Z,12.04
2022-10-29T08:03:19.354Z,11.78
2022-10-29T08:05:19.327Z,11.84
2022-10-29T08:07:19.303Z,11.83
2022-10-29T08:09:19.345Z,11.75
2022-10-29T08:12:10.102Z,12.22
2022-10-29T08:14:10.030Z,12.79
2022-10-29T08:16:10.097Z,13.06
2022-10-29T08:18:10.050Z,13.37
2022-10-29T08:20:10.008Z,13.02
2022-10-29T08:22:10.015Z,13.05
2022-10-29T08:24:09.994Z,13.27
2022-10-29T08:27:50.193Z,13.98
2022-10-29T08:29:50.195Z,14.58
2022-10-29T08:31:50.147Z,14.64
2022-10-29T08:33:50.158Z,15.02
2022-10-29T08:35:50.174Z,15.42
2022-10-29T08:37:50.204Z,15.69
2022-10-29T08:39:50.151Z,15.87
2022-10-29T08:42:37.677Z,16.02
2022-10-29T08:44:37.684Z,16.09
2022-10-29T08:46:37.699Z,16.41
2022-10-29T08:48:37.655Z,16.43
2022-10-29T08:50:37.685Z,16.5
2022-10-29T08:52:37.716Z,16.52
2022-10-29T08:54:37.673Z,16.68
2022-10-29T08:58:00.086Z,16.73
2022-10-29T08:59:59.951Z,16.78
2022-10-29T09:01:59.962Z,16.49
2022-10-29T09:03:59.874Z,17
2022-10-29T09:05:59.889Z,17.18
2022-10-29T09:08:02.046Z,17.42
2022-10-29T09:09:59.852Z,17.49
2022-10-29T09:13:22.480Z,17.55
2022-10-29T09:15:22.513Z,17.11
2022-10-29T09:17:22.437Z,17.66
2022-10-29T09:19:22.485Z,17.6
2022-10-29T09:21:22.573Z,17.77
2022-10-29T09:23:22.427Z,18.05
2022-10-29T09:25:22.472Z,17.94
2022-10-29T09:27:57.009Z,17.63
2022-10-29T09:29:56.722Z,18.26
2022-10-29T09:31:56.668Z,18.58
2022-10-29T09:33:57.910Z,18.24
2022-10-29T09:35:56.684Z,18.52
2022-10-29T09:37:57.004Z,18.79
2022-10-29T09:39:56.739Z,18.53
2022-10-29T09:43:02.943Z,19.06
2022-10-29T09:45:02.960Z,18.92
2022-10-29T09:47:07.077Z,18.88
2022-10-29T09:49:03.032Z,18.93
2022-10-29T09:51:02.958Z,18.94
2022-10-29T09:53:02.991Z,19.34
2022-10-29T09:55:02.980Z,19.28
2022-10-29T09:58:02.524Z,19.51
2022-10-29T10:00:02.550Z,19.61
2022-10-29T10:02:02.717Z,19.53
2022-10-29T10:04:02.599Z,19.35
2022-10-29T10:06:02.510Z,19.16
2022-10-29T10:08:02.515Z,19.63
2022-10-29T10:10:02.654Z,19.88
2022-10-29T10:12:02.487Z,20.04
2022-10-29T10:13:35.372Z,20.12
2022-10-29T10:15:35.434Z,19.88
2022-10-29T10:17:35.332Z,20.15
2022-10-29T10:19:35.396Z,20.21
2022-10-29T10:21:35.465Z,20.38
2022-10-29T10:23:35.465Z,20.17
2022-10-29T10:25:35.400Z,20.47
2022-10-29T10:28:34.777Z,20.5
2022-10-29T10:30:34.622Z,20.41
2022-10-29T10:32:34.696Z,20.54
2022-10-29T10:34:34.675Z,20.68
2022-10-29T10:36:34.639Z,20.71
2022-10-29T10:38:34.581Z,20.97
2022-10-29T10:40:34.636Z,21.12
2022-10-29T10:43:32.458Z,20.95
2022-10-29T10:45:32.412Z,20.98
2022-10-29T10:47:32.405Z,21.1
2022-10-29T10:49:32.590Z,20.89
2022-10-29T10:51:32.514Z,20.77
2022-10-29T10:53:32.519Z,20.84
2022-10-29T10:55:32.406Z,21.03
2022-10-29T10:57:32.577Z,21.22
2022-10-29T10:58:47.693Z,21.31
2022-10-29T11:00:47.854Z,21.36
2022-10-29T11:02:47.715Z,20.76
2022-10-29T11:04:47.677Z,21.06
2022-10-29T11:06:47.770Z,21.2
2022-10-29T11:08:47.716Z,21.13
2022-10-29T11:10:47.686Z,21.33
2022-10-29T11:12:47.722Z,21.47
2022-10-29T11:14:27.192Z,20.99
2022-10-29T11:16:27.022Z,20.73
2022-10-29T11:18:27.943Z,21.15
2022-10-29T11:20:27.010Z,21.46
2022-10-29T11:22:27.038Z,21.56
2022-10-29T11:24:26.976Z,21.54
2022-10-29T11:26:27.052Z,21.3
2022-10-29T11:29:16.896Z,21.15
2022-10-29T11:31:16.869Z,20.82
2022-10-29T11:33:16.990Z,21.28
2022-10-29T11:35:16.985Z,21.38
2022-10-29T11:37:16.826Z,21.23
2022-10-29T11:39:16.882Z,20.77
2022-10-29T11:41:16.909Z,20.9
2022-10-29T11:45:05.030Z,21.12
2022-10-29T11:47:05.056Z,21.18
2022-10-29T11:49:05.081Z,21.08
2022-10-29T11:51:05.009Z,21.17
2022-10-29T11:53:05.011Z,21.14
2022-10-29T11:55:05.063Z,21.56
2022-10-29T11:57:05.015Z,21.7
2022-10-29T12:00:06.507Z,21.82
2022-10-29T12:02:06.439Z,21.3
2022-10-29T12:04:06.497Z,21.3
2022-10-29T12:06:06.574Z,20.72
2022-10-29T12:08:06.416Z,21.23
2022-10-29T12:10:06.548Z,21.51
2022-10-29T12:12:06.787Z,21.52
2022-10-29T12:15:01.242Z,21.66
2022-10-29T12:17:01.269Z,21.8
2022-10-29T12:19:01.363Z,21.65
2022-10-29T12:21:01.558Z,21.54
2022-10-29T12:23:03.612Z,21.29
2022-10-29T12:25:01.221Z,21.32
2022-10-29T12:27:01.233Z,21.55
2022-10-29T12:30:04.448Z,21.74
2022-10-29T12:32:04.349Z,21.77
2022-10-29T12:34:04.777Z,21.89
2022-10-29T12:36:06.853Z,21.82
2022-10-29T12:38:04.847Z,21.86
2022-10-29T12:40:04.268Z,21.95
2022-10-29T12:42:04.295Z,21.78
2022-10-29T12:45:23.601Z,21.44
2022-10-29T12:47:23.801Z,21.48
2022-10-29T12:49:23.600Z,21.65
2022-10-29T12:51:23.488Z,21.48
2022-10-29T12:53:23.592Z,21.47
2022-10-29T12:55:23.631Z,21.34
2022-10-29T12:57:23.584Z,21.25
2022-10-29T13:00:36.387Z,21.41
2022-10-29T13:02:36.463Z,21.4
2022-10-29T13:04:36.335Z,21.46
2022-10-29T13:06:36.355Z,21.38
2022-10-29T13:08:36.397Z,21.39
2022-10-29T13:10:36.359Z,21.33
2022-10-29T13:12:36.424Z,21.45
2022-10-29T13:15:31.972Z,21.39
2022-10-29T13:17:31.814Z,21.21
2022-10-29T13:19:31.763Z,21.06
2022-10-29T13:21:31.801Z,21.13
2022-10-29T13:23:31.767Z,20.94
2022-10-29T13:25:31.858Z,20.99
2022-10-29T13:27:31.984Z,21.03
2022-10-29T13:30:25.885Z,20.81
2022-10-29T13:32:25.874Z,20.77
2022-10-29T13:34:25.820Z,20.75
2022-10-29T13:36:25.935Z,20.76
2022-10-29T13:38:25.852Z,20.88
2022-10-29T13:40:25.835Z,20.82
2022-10-29T13:42:25.797Z,20.77
2022-10-29T13:44:25.805Z,20.63
2022-10-29T13:45:55.161Z,20.45
2022-10-29T13:47:55.082Z,20.54
2022-10-29T13:49:55.137Z,20.51
2022-10-29T13:51:55.204Z,20.12
2022-10-29T13:53:55.042Z,20.31
2022-10-29T13:55:55.122Z,20.19
2022-10-29T13:57:55.412Z,19.98
2022-10-29T14:00:50.882Z,19.91
2022-10-29T14:02:50.818Z,19.87
2022-10-29T14:04:50.739Z,19.91
2022-10-29T14:06:50.754Z,19.7
2022-10-29T14:08:50.774Z,19.64
2022-10-29T14:10:50.709Z,19.62
2022-10-29T14:36:11.424Z,19
2022-10-29T14:38:11.406Z,18.85
2022-10-29T14:40:11.384Z,18.72
2022-10-29T14:42:11.358Z,18.56
2022-10-29T14:44:11.267Z,18.58
2022-10-29T14:47:45.626Z,18.43
2022-10-29T14:49:45.627Z,18.32
2022-10-29T14:51:45.654Z,18.22
2022-10-29T14:53:45.630Z,18.1
2022-10-29T14:55:45.666Z,18.04
2022-10-29T14:57:45.670Z,17.93
2022-10-29T14:59:45.845Z,17.78
2022-10-29T15:02:57.847Z,17.61
2022-10-29T15:04:57.430Z,17.39
2022-10-29T15:06:57.441Z,17.2
2022-10-29T15:08:57.394Z,17.18
2022-10-29T15:10:57.413Z,17.07
2022-10-29T15:12:57.689Z,17
2022-10-29T15:14:57.371Z,16.92
2022-10-29T15:17:12.457Z,16.82
2022-10-29T15:19:12.477Z,16.7
2022-10-29T15:21:12.476Z,16.65
2022-10-29T15:23:12.482Z,16.58
2022-10-29T15:25:12.476Z,16.47
2022-10-29T15:27:12.541Z,16.23
2022-10-29T15:29:12.515Z,16.18
2022-10-29T15:31:12.448Z,16.11
2022-10-29T15:32:35.148Z,16.11
2022-10-29T15:34:35.192Z,15.94
2022-10-29T15:36:35.128Z,15.92
2022-10-29T15:38:35.151Z,15.88
2022-10-29T15:40:35.054Z,15.81
2022-10-29T15:42:35.136Z,15.76
2022-10-29T15:44:35.054Z,15.72
2022-10-29T15:48:09.314Z,15.72
2022-10-29T15:50:09.273Z,15.53
2022-10-29T15:52:09.356Z,15.42
2022-10-29T15:54:09.319Z,15.33
2022-10-29T15:56:09.317Z,15.29
2022-10-29T15:58:09.559Z,15.28
2022-10-29T16:00:09.435Z,15.19
2022-10-29T16:03:03.253Z,15.03
2022-10-29T16:05:00.105Z,15.08
2022-10-29T16:06:59.941Z,15.05
2022-10-29T16:08:59.941Z,15.03
2022-10-29T16:11:00.201Z,15
2022-10-29T16:13:00.441Z,14.84
2022-10-29T16:14:59.987Z,14.93
2022-10-29T16:17:51.911Z,14.82
2022-10-29T16:19:51.922Z,14.68
2022-10-29T16:21:51.637Z,14.73
2022-10-29T16:23:51.654Z,14.61
2022-10-29T16:25:51.674Z,14.51
2022-10-29T16:27:51.657Z,14.56
2022-10-29T16:29:51.665Z,14.51
2022-10-29T16:31:51.667Z,14.42
2022-10-29T16:33:35.126Z,14.45
2022-10-29T16:35:35.145Z,14.32
2022-10-29T16:37:35.264Z,14.36
2022-10-29T16:39:35.178Z,14.2
2022-10-29T16:41:35.150Z,14.26
2022-10-29T16:43:35.146Z,14.22
2022-10-29T16:45:35.198Z,14.24
2022-10-29T16:48:34.180Z,14.28
2022-10-29T16:50:34.270Z,14.15
2022-10-29T16:52:34.249Z,14.09
2022-10-29T16:54:34.177Z,14.05
2022-10-29T16:56:34.342Z,14.02
2022-10-29T16:58:34.277Z,13.96
2022-10-29T17:00:34.276Z,13.83
2022-10-29T17:03:23.975Z,13.82
2022-10-29T17:05:23.986Z,13.84
2022-10-29T17:07:24.031Z,13.79
2022-10-29T17:09:25.527Z,13.66
2022-10-29T17:11:24.097Z,13.59
2022-10-29T17:13:23.934Z,13.7
2022-10-29T17:15:24.011Z,13.66
2022-10-29T17:17:24.040Z,13.65
2022-10-29T17:19:00.641Z,13.64
2022-10-29T17:21:00.536Z,13.6
2022-10-29T17:23:00.648Z,13.55
2022-10-29T17:25:00.776Z,13.46
2022-10-29T17:27:00.679Z,13.52
2022-10-29T17:29:00.539Z,13.44
2022-10-29T17:31:00.585Z,13.38
2022-10-29T17:34:35.137Z,13.32
2022-10-29T17:36:34.784Z,13.26
2022-10-29T17:38:34.824Z,13.36
2022-10-29T17:40:34.805Z,13.31
2022-10-29T17:42:34.833Z,13.33
2022-10-29T17:44:34.902Z,13.29
2022-10-29T17:46:34.838Z,13.19
2022-10-29T17:49:47.285Z,13.02
2022-10-29T17:51:47.312Z,13.03
2022-10-29T17:53:47.253Z,13
2022-10-29T17:55:47.327Z,12.83
2022-10-29T17:57:47.274Z,12.98
2022-10-29T17:59:47.253Z,12.9
2022-10-29T18:01:47.388Z,12.85
2022-10-29T18:04:02.909Z,12.93
2022-10-29T18:06:02.925Z,12.9
2022-10-29T18:08:02.879Z,12.91
2022-10-29T18:10:02.833Z,12.85
2022-10-29T18:12:02.945Z,12.77
2022-10-29T18:14:02.924Z,12.7
2022-10-29T18:16:02.835Z,12.76
2022-10-29T18:18:02.885Z,12.7
2022-10-29T18:19:46.035Z,12.72
2022-10-29T18:21:45.841Z,12.75
2022-10-29T18:23:45.840Z,12.63
2022-10-29T18:25:45.857Z,12.61
2022-10-29T18:27:45.809Z,12.6
2022-10-29T18:29:45.795Z,12.58
2022-10-29T18:31:45.835Z,12.55
2022-10-29T18:34:39.614Z,12.51
2022-10-29T18:36:39.825Z,12.54
2022-10-29T18:38:39.608Z,12.65
2022-10-29T18:40:39.600Z,12.58
2022-10-29T18:42:39.718Z,12.54
2022-10-29T18:44:39.582Z,12.52
2022-10-29T18:46:39.582Z,12.5
2022-10-29T18:50:08.835Z,12.48
2022-10-29T18:52:08.935Z,12.47
2022-10-29T18:54:08.923Z,12.44
2022-10-29T18:56:08.895Z,12.43
2022-10-29T18:58:08.883Z,12.31
2022-10-29T19:00:08.841Z,12.18
2022-10-29T19:02:08.992Z,12.24
2022-10-29T19:05:08.855Z,12.27
2022-10-29T19:07:08.952Z,12.28
2022-10-29T19:09:08.799Z,12.07
2022-10-29T19:11:08.933Z,12.17
2022-10-29T19:13:08.860Z,12.18
2022-10-29T19:15:08.852Z,12.12
2022-10-29T19:17:08.854Z,12.1
2022-10-29T19:19:52.509Z,12.14
2022-10-29T19:21:52.667Z,12.19
2022-10-29T19:23:52.606Z,12.12
2022-10-29T19:25:52.467Z,12.05
2022-10-29T19:27:52.476Z,12.05
2022-10-29T19:29:52.529Z,12.08
2022-10-29T19:31:52.719Z,12.15
2022-10-29T19:33:52.565Z,12.14
2022-10-29T19:35:51.592Z,12.05
2022-10-29T19:37:51.466Z,11.95
2022-10-29T19:39:51.411Z,11.87
2022-10-29T19:41:51.553Z,11.88
2022-10-29T19:43:51.401Z,11.89
2022-10-29T19:45:51.381Z,11.88
2022-10-29T19:47:51.376Z,11.87
2022-10-29T19:51:06.992Z,11.81
2022-10-29T19:53:07.013Z,11.88
2022-10-29T19:55:07.119Z,11.87
2022-10-29T19:57:06.979Z,11.86
2022-10-29T19:59:07.174Z,11.78
2022-10-29T20:01:07.111Z,11.7
2022-10-29T20:03:07.055Z,11.71
2022-10-29T20:07:32.804Z,11.73
2022-10-29T20:09:32.989Z,11.79
2022-10-29T20:11:32.859Z,11.8
2022-10-29T20:13:32.818Z,11.81
2022-10-29T20:15:32.812Z,11.75
2022-10-29T20:17:32.776Z,11.71
2022-10-29T20:21:17.527Z,11.78
2022-10-29T20:23:17.462Z,11.7
2022-10-29T20:25:23.628Z,11.58
2022-10-29T20:27:17.457Z,11.58
2022-10-29T20:29:17.434Z,11.57
2022-10-29T20:31:17.438Z,11.56
2022-10-29T20:33:17.425Z,11.5
2022-10-29T20:36:02.055Z,11.62
2022-10-29T20:38:02.199Z,11.64
2022-10-29T20:40:02.059Z,11.56
2022-10-29T20:42:04.073Z,11.6
2022-10-29T20:44:02.149Z,11.57
2022-10-29T20:46:01.992Z,11.55
2022-10-29T20:48:02.093Z,11.46
2022-10-29T20:51:09.484Z,11.45
2022-10-29T20:55:09.439Z,11.25
2022-10-29T20:57:09.429Z,11.34
2022-10-29T20:59:09.443Z,11.29
2022-10-29T21:01:09.480Z,11.25
2022-10-29T21:03:09.527Z,11.3
2022-10-29T21:06:33.705Z,11.29
2022-10-29T21:08:33.736Z,11.24
2022-10-29T21:10:33.742Z,11.13
2022-10-29T21:12:33.712Z,11.16
2022-10-29T21:14:33.653Z,11.18
2022-10-29T21:16:33.837Z,11.14
2022-10-29T21:18:33.729Z,11.13
2022-10-29T21:21:40.639Z,11.13
2022-10-29T21:23:40.671Z,11.02
2022-10-29T21:25:40.709Z,11.1
2022-10-29T21:27:40.598Z,10.97
2022-10-29T21:29:40.785Z,11.01
2022-10-29T21:31:40.626Z,10.99
2022-10-29T21:33:40.681Z,10.93
2022-10-29T21:36:53.552Z,10.95
2022-10-29T21:38:53.659Z,10.93
2022-10-29T21:40:53.549Z,10.89
2022-10-29T21:42:53.605Z,10.91
2022-10-29T21:44:53.595Z,10.95
2022-10-29T21:46:53.568Z,10.93
2022-10-29T21:48:53.614Z,10.96
2022-10-29T21:51:53.772Z,10.91
2022-10-29T21:53:53.801Z,10.82
2022-10-29T21:55:53.873Z,10.79
2022-10-29T21:57:54.054Z,10.78
2022-10-29T21:59:53.823Z,10.72
2022-10-29T22:01:53.848Z,10.7
2022-10-29T22:03:53.757Z,10.66
2022-10-29T22:07:21.228Z,10.67
2022-10-29T22:09:21.259Z,10.64
2022-10-29T22:11:21.215Z,10.69
2022-10-29T22:13:21.514Z,10.67
2022-10-29T22:15:21.206Z,10.67
2022-10-29T22:17:21.198Z,10.57
2022-10-29T22:19:21.227Z,10.62
2022-10-29T22:22:27.214Z,10.59
2022-10-29T22:24:27.223Z,10.61
2022-10-29T22:26:27.152Z,10.5
2022-10-29T22:28:27.188Z,10.48
2022-10-29T22:30:27.215Z,10.43
2022-10-29T22:32:27.135Z,10.38
2022-10-29T22:34:27.199Z,10.22
2022-10-29T22:37:39.777Z,10.29
2022-10-29T22:39:39.893Z,10.35
2022-10-29T22:41:39.733Z,10.31
2022-10-29T22:43:39.789Z,10.16
2022-10-29T22:45:39.875Z,10.17
2022-10-29T22:47:39.744Z,10.08
2022-10-29T22:49:39.761Z,10.13
2022-10-29T22:52:31.691Z,10.15
2022-10-29T22:54:31.686Z,10.03
2022-10-29T22:56:31.680Z,10.05
2022-10-29T22:58:31.684Z,10.08
2022-10-29T23:00:31.614Z,9.97
2022-10-29T23:02:31.700Z,9.95
2022-10-29T23:04:31.646Z,9.81
2022-10-29T23:07:55.364Z,9.84
2022-10-29T23:09:55.223Z,9.89
2022-10-29T23:11:55.209Z,9.9
2022-10-29T23:13:55.153Z,9.81
2022-10-29T23:15:55.165Z,9.77
2022-10-29T23:17:55.514Z,9.74
2022-10-29T23:19:55.204Z,9.71
2022-10-29T23:22:43.150Z,9.63
2022-10-29T23:24:43.160Z,9.57
2022-10-29T23:26:43.129Z,9.7
2022-10-29T23:28:43.162Z,9.69
2022-10-29T23:30:43.132Z,9.65
2022-10-29T23:32:43.299Z,9.68
2022-10-29T23:34:43.108Z,9.63
2022-10-29T23:38:26.802Z,9.59
2022-10-29T23:40:26.740Z,9.6
2022-10-29T23:42:26.761Z,9.59
2022-10-29T23:44:26.761Z,9.56
2022-10-29T23:46:26.736Z,9.55
2022-10-29T23:48:26.816Z,9.4
2022-10-29T23:50:26.792Z,9.47
2022-10-29T23:52:58.577Z,9.44
2022-10-29T23:54:58.393Z,9.44
2022-10-29T23:56:58.401Z,9.42
2022-10-29T23:58:58.399Z,9.39
